Historyczne dane pomiarowe

Dodano dane terminowe – wersja testowa.

Dane z okresu 1951-2019

Wersja bazy: 1.34 [2019-03-16, lista zmian], aktualizacja planowana na 2019-04-15

Dane meteo z obszaru Polski uzyskane na podstawie danych udostępnionych przez Instytut Meteorologii i Gospodarki Wodnej – Państwowy Instytut Badawczy.

 

Wybierz Datę:    

       

TemperaturaWilgotnośćWiatrCiśnienieOpadyŚniegCzas trwania zjawisk
 Stacja t tx tn tng RH VA  wxwx mslp ppp RRR   cm mm wxwxwxwxwxwxwx
2019-01-31 -0.2 2.2 -1.8 -2.5 90.9 5.5- 0.9--1004.8 978.9 0.0 0.0 0.0x- 2.6-------
2019-01-30 0.7 2.7 -0.6 -1.0 90.3 5.8- 1.1--1004.9 979.1 0.0 0.0 0.0x- 0.0-------
2019-01-29 1.1 4.6 -2.7 -5.1 85.9 5.7- 0.6--1004.8 979.0 0.0 0.0 0.0x- 1.1-------
2019-01-28 2.2 6.3 -1.3 -5.3 77.0 5.5- 1.8-- 997.1 971.6 0.8 0.0 0.8x- 5.2-------
2019-01-27 -0.4 1.2 -2.3 -2.2 75.4 4.5- 2.4--1001.8 975.9 0.0 0.0 0.0x- 0.5-------
2019-01-26 -3.7 -1.9 -6.9 -9.4 79.1 3.7- 1.1--1009.1 982.7 0.0 0.0 0.0x- 0.4-------
2019-01-25 -5.1 -3.9 -6.6 -6.5 81.5 3.4- 1.6--1013.2 986.5 0.1 0.1 0.0x- 0.0-------
2019-01-24 -6.0 -5.2 -6.4 -6.3 81.9 3.2- 2.8--1011.6 984.9 0.8 0.1 0.7x- 0.0-------
2019-01-23 -5.0 -4.3 -5.6 -5.4 83.8 3.6- 2.6--1008.5 982.0 0.0 0.0 0.0x- 0.0-------
2019-01-22 -8.1 -3.8-13.3-13.7 87.1 3.0- 1.0--1017.6 990.5 0.0 0.0 0.0x- 6.4-------
2019-01-21 -7.5 -3.2 -9.8-10.6 90.8 3.2- 1.0--1024.2 997.0 0.0 0.0 0.0x- 0.1-------
2019-01-20 -5.3 -2.1 -8.3 -9.1 87.0 3.6- 0.6--1019.8 993.0 0.0 0.0 0.0x- 0.2-------
2019-01-19 -3.5 1.0 -7.8 -8.3 75.6 3.5- 0.9--1023.0 996.3 0.0 0.0 0.0x- 7.0-------
2019-01-18 2.7 6.5 -0.2 -1.3 76.1 5.6- 2.3--1013.0 987.1 0.1 0.1 0.0x- 0.0-------
2019-01-17 3.6 6.8 1.5 0.6 73.4 5.8- 2.3--1006.3 980.7 0.0 0.0 0.0x- 2.6-------
2019-01-16 3.3 4.6 0.5 0.1 90.8 7.0- 2.5--1008.4 982.6 0.6 0.6 0.0x- 0.0-------
2019-01-15 -0.6 0.8 -2.6 -3.1 83.0 4.9- 2.6--1006.6 980.6 4.5 1.0 3.5x- 0.1-------
2019-01-14 1.1 3.7 -1.8 -2.4 82.6 5.6- 3.0-- 993.3 967.8 0.3 0.3 0.0x- 0.8-------
2019-01-13 1.4 3.5 -0.7 -0.7 88.0 6.0- 2.3--1000.3 974.6 2.0 0.3 1.7x- 0.0-------
2019-01-12 0.6 2.6 -9.1-10.5 85.8 5.5- 1.6--1010.9 984.8 1.2 0.0 1.2x- 0.3-------
2019-01-11 -6.8 -4.3 -9.6-13.3 86.1 3.2- 1.0--1019.7 992.8 0.4 0.0 0.4x- 0.0-------
2019-01-10 -4.5 -2.4 -6.2 -7.8 88.3 3.9- 1.0--1016.0 989.4 0.4 0.3 0.1x- 0.0-------
2019-01-09 -3.0 -1.2 -4.4 -4.3 81.9 4.0- 2.1--1004.3 978.1 0.7 0.0 0.7x- 0.3-------
2019-01-08 -4.6 -3.2-10.6-15.7 77.5 3.4- 3.0--1011.3 984.8 0.3 0.3 0.0x- 0.0-------
2019-01-07 -6.9 -3.8-10.5-15.8 86.6 3.2- 1.0--1030.01002.8 0.1 0.1 0.0x- 2.5-------
2019-01-06 -3.5 1.1 -6.0 -4.1 82.6 3.9- 2.3--1021.6 994.9 0.4 0.4 0.0x- 0.0-------
2019-01-05 -0.1 1.2 -3.8 -4.0 92.8 5.6- 1.6--1013.8 987.7 4.9 4.9 0.0x- 0.0-------
2019-01-04 -3.5 -1.5 -4.5 -4.7 79.8 3.8- 1.9--1026.2 999.4 1.3 0.0 1.3x- 0.7-------
2019-01-03 -2.5 -0.1 -3.6 -3.5 81.1 4.1- 3.4--1022.0 995.4 0.7 0.5 0.2x- 2.1-------
2019-01-02 0.7 5.0 -0.1 -0.4 89.3 5.8- 3.5--1011.4 985.4 2.3 2.0 0.3x- 0.0-------
2019-01-01 2.4 5.2 -1.1 -2.6 85.6 6.3- 1.8--1019.1 993.0 4.4 0.1 4.3x- 0.0-------
2018-12-31 2.2 3.8 0.9 0.4 90.0 6.4- 2.3--1026.1 999.8 1.8 1.8 0.0x- 0.0-------
2018-12-30 3.7 6.0 3.2 3.1 92.6 7.4- 1.0--1020.3 994.3 3.5 0.3 3.2x- 1.3-------
2018-12-29 3.6 4.6 3.1 2.8 93.3 7.4- 1.4--1025.2 999.1 1.0 0.2 0.8x- 0.0-------
2018-12-28 4.8 6.7 4.1 3.7 90.5 7.8- 2.3--1021.0 995.1 2.8 0.1 2.7x- 0.0-------
2018-12-27 4.9 6.6 3.4 3.3 89.8 7.8- 2.3--1022.8 996.8 1.1 1.1 0.0x- 0.0-------
2018-12-26 3.1 3.7 0.9 0.7 89.3 6.8- 2.9--1023.2 997.1 0.1 0.1 0.0x- 0.0-------
2018-12-25 0.0 0.9 -1.3 -1.2 87.3 5.4- 2.1--1024.6 998.1 1.1 0.8 0.3x- 0.0-------
2018-12-24 1.8 5.0 0.1 -0.1 87.3 6.2- 2.3--1015.0 988.9 0.6 0.6 0.0x- 0.0-------
2018-12-23 3.9 6.7 2.5 2.0 84.8 6.8- 1.8--1016.7 990.8 1.8 0.1 1.7x- 0.0-------
2018-12-22 6.7 9.4 2.4 1.6 78.9 7.7- 2.8--1007.3 981.9 2.8 2.8 0.0x- 0.0-------
2018-12-21 1.7 2.7 0.1 -0.6 74.5 5.2- 3.1--1018.0 991.8 0.7 0.0 0.7x- 1.8-------
2018-12-20 -0.7 1.5 -4.9 -6.2 77.8 4.6- 1.6--1021.5 995.1 0.0 0.0 0.0x- 0.0-------
2018-12-19 -3.2 -1.0 -4.6 -6.3 85.1 4.1- 2.4--1028.11001.3 0.0 0.0 0.0x- 2.9-------
2018-12-18 -1.2 1.6 -5.0 -8.3 91.9 5.2- 0.8--1030.01003.3 0.0 0.0 0.0x- 0.0-------
2018-12-17 -5.5 -1.6-11.4-13.4 89.0 3.7- 0.5--1024.1 997.1 0.0 0.0 0.0x- 0.0-------
2018-12-16 -2.5 0.4 -4.6 -8.8 88.1 4.5- 1.1--1020.3 993.7 0.1 0.1 0.0x- 1.8-------
2018-12-15 -1.2 -0.5 -2.1 -2.0 85.9 4.8- 3.0--1025.2 998.6 0.7 0.2 0.5x- 0.0-------
2018-12-14 -1.1 0.2 -2.3 -3.2 92.0 5.2- 1.4--1025.7 999.1 0.0 0.0 0.0x- 0.0-------
2018-12-13 -0.1 0.5 -1.1 -0.9 95.6 5.8- 1.0--1023.0 996.5 0.0 0.0 0.0x- 0.0-------
2018-12-12 0.2 1.0 -0.8 -1.0 97.4 6.1- 0.6--1019.3 993.0 0.1 0.0 0.1x- 0.0-------
2018-12-11 1.1 2.6 -1.6 -2.5 88.3 5.8- 1.4--1012.2 986.2 2.5 1.1 1.4x- 0.4-------
2018-12-10 3.7 6.7 1.2 0.4 83.3 6.6- 2.3--1006.8 981.2 1.7 1.7 0.0x- 0.3-------
2018-12-09 4.3 6.7 2.1 -0.7 78.8 6.5- 2.3--1001.0 975.5 0.6 0.5 0.1x- 0.1-------
2018-12-08 4.6 7.3 2.7 0.4 81.6 6.9- 2.0--1007.3 981.8 1.3 1.3 0.0x- 0.0-------
2018-12-07 3.2 5.5 1.2 0.9 78.5 6.1- 2.9--1014.5 988.6 1.3 0.0 1.3x- 0.0-------
2018-12-06 0.9 3.7 -3.5- 75.6 4.9- 1.1--1025.9 999.5 0.0 0.0 0.0x- 5.1-------
2018-12-05 0.9 5.9 -1.0 -2.5 84.6 5.5- 1.5--1027.91001.5 0.0 0.0 0.0x- 0.8-------
2018-12-04 5.9 8.2 4.4 3.2 86.6------- 1.3 1.3 0.0x- 0.0-------
2018-12-03 4.3--- 77.3------- 0.1 0.1 0.0x- 3.2-------
340.7 ms

 

Źródłem pochodzenia danych jest Instytut Meteorologii i Gospodarki Wodnej – Państwowy Instytut Badawczy. Dane Instytutu Meteorologii i Gospodarki Wodnej – Państwowego Instytutu Badawczego zostały przetworzone.

Dane źródłowe można odnaleźć na stronie https://dane.imgw.pl